createdAt,value
2018-12-12T00:01:31.206Z,28.27
2018-12-12T00:04:01.486Z,19.10
2018-12-12T00:06:32.277Z,18.03
2018-12-12T00:09:03.859Z,20.73
2018-12-12T00:11:34.132Z,17.73
2018-12-12T00:14:04.663Z,20.43
2018-12-12T00:16:39.070Z,22.90
2018-12-12T00:19:09.263Z,20.23
2018-12-12T00:21:40.219Z,19.02
2018-12-12T00:24:10.282Z,29.57
2018-12-12T00:26:41.975Z,23.10
2018-12-12T00:29:14.428Z,16.70
2018-12-12T00:31:45.238Z,16.07
2018-12-12T00:34:15.383Z,23.13
2018-12-12T00:36:48.144Z,18.03
2018-12-12T00:39:19.510Z,17.37
2018-12-12T00:41:50.167Z,25.00
2018-12-12T00:44:20.924Z,16.63
2018-12-12T00:46:51.533Z,17.73
2018-12-12T00:49:22.310Z,22.35
2018-12-12T00:51:55.353Z,18.50
2018-12-12T00:54:26.403Z,20.23
2018-12-12T00:56:59.349Z,17.43
2018-12-12T00:59:30.350Z,24.00
2018-12-12T01:02:00.464Z,19.20
2018-12-12T01:04:31.746Z,24.30
2018-12-12T01:07:02.441Z,20.93
2018-12-12T01:09:32.693Z,21.87
2018-12-12T01:12:12.518Z,20.80
2018-12-12T01:14:42.488Z,15.70
2018-12-12T01:17:13.520Z,20.72
2018-12-12T01:19:44.716Z,21.87
2018-12-12T01:22:15.571Z,20.43
2018-12-12T01:24:46.481Z,24.33
2018-12-12T01:27:16.602Z,19.30
2018-12-12T01:29:47.951Z,17.00
2018-12-12T01:32:21.421Z,23.33
2018-12-12T01:34:51.568Z,20.33
2018-12-12T01:37:22.470Z,16.40
2018-12-12T01:39:52.767Z,17.70
2018-12-12T01:42:29.367Z,19.73
2018-12-12T01:45:00.504Z,20.27
2018-12-12T01:47:30.677Z,19.97
2018-12-12T01:50:01.615Z,24.37
2018-12-12T01:52:31.836Z,20.87
2018-12-12T01:55:02.716Z,17.73
2018-12-12T01:57:32.659Z,20.40
2018-12-12T02:00:03.982Z,19.80
2018-12-12T02:02:36.742Z,17.45
2018-12-12T02:05:07.963Z,21.48
2018-12-12T02:07:40.918Z,19.70
2018-12-12T02:10:12.029Z,18.30
2018-12-12T02:12:42.019Z,28.13
2018-12-12T02:15:12.640Z,20.00
2018-12-12T02:17:42.632Z,21.95
2018-12-12T02:20:13.309Z,20.53
2018-12-12T02:22:45.144Z,19.93
2018-12-12T02:25:15.790Z,15.73
2018-12-12T02:27:46.617Z,19.37
2018-12-12T02:30:16.855Z,21.97
2018-12-12T02:32:48.074Z,20.10
2018-12-12T02:35:24.631Z,20.95
2018-12-12T02:37:56.013Z,15.93
2018-12-12T02:40:32.753Z,21.90
2018-12-12T02:43:02.800Z,18.80
2018-12-12T02:45:33.971Z,18.07
2018-12-12T02:48:04.907Z,20.50
2018-12-12T02:50:37.060Z,17.03
2018-12-12T02:53:08.129Z,19.73
2018-12-12T02:55:39.132Z,20.13
2018-12-12T02:58:09.708Z,15.33
2018-12-12T03:00:39.987Z,19.12
2018-12-12T03:03:10.824Z,17.87
2018-12-12T03:05:41.027Z,24.83
2018-12-12T03:08:12.003Z,19.07
2018-12-12T03:10:42.021Z,19.80
2018-12-12T03:13:13.072Z,17.95
2018-12-12T03:15:46.808Z,19.60
2018-12-12T03:18:17.069Z,16.10
2018-12-12T03:20:48.162Z,20.60
2018-12-12T03:23:25.178Z,22.10
2018-12-12T03:25:58.686Z,18.50
2018-12-12T03:28:29.027Z,20.60
2018-12-12T03:31:00.023Z,18.80
2018-12-12T03:33:33.040Z,18.90
2018-12-12T03:36:04.110Z,19.30
2018-12-12T03:38:34.937Z,21.80
2018-12-12T03:41:05.178Z,18.93
2018-12-12T03:43:36.064Z,17.87
2018-12-12T03:46:07.136Z,18.20
2018-12-12T03:48:38.033Z,20.13
2018-12-12T03:51:11.869Z,19.10
2018-12-12T03:53:41.967Z,20.67
2018-12-12T03:56:13.252Z,16.57
2018-12-12T03:58:50.929Z,21.93
2018-12-12T04:01:23.211Z,17.12
2018-12-12T04:03:54.237Z,20.90
2018-12-12T04:06:24.200Z,20.40
2018-12-12T04:08:55.164Z,17.90
2018-12-12T04:11:28.186Z,22.07
2018-12-12T04:13:58.362Z,21.33
2018-12-12T04:16:29.915Z,18.00
2018-12-12T04:19:00.299Z,17.77
2018-12-12T04:21:31.028Z,20.93
2018-12-12T04:24:01.331Z,19.03
2018-12-12T04:26:35.147Z,21.80
2018-12-12T04:29:06.257Z,19.50
2018-12-12T04:31:36.201Z,20.30
2018-12-12T04:34:07.389Z,26.80
2018-12-12T04:36:38.379Z,18.70
2018-12-12T04:39:08.962Z,24.30
2018-12-12T04:41:39.236Z,21.43
2018-12-12T04:44:10.401Z,23.07
2018-12-12T04:46:40.423Z,20.30
2018-12-12T04:49:11.506Z,20.93
2018-12-12T04:51:42.723Z,20.57
2018-12-12T04:54:13.328Z,21.30
2018-12-12T04:56:45.498Z,18.17
2018-12-12T04:59:17.771Z,18.10
2018-12-12T05:01:48.534Z,26.57
2018-12-12T05:04:19.335Z,18.80
2018-12-12T05:06:49.347Z,18.87
2018-12-12T05:09:20.507Z,21.17
2018-12-12T05:11:50.469Z,21.30
2018-12-12T05:14:21.583Z,18.90
2018-12-12T05:16:54.554Z,24.33
2018-12-12T05:19:26.447Z,21.80
2018-12-12T05:21:56.867Z,17.53
2018-12-12T05:24:29.802Z,22.20
2018-12-12T05:27:00.545Z,19.60
2018-12-12T05:29:30.607Z,18.50
2018-12-12T05:32:01.610Z,19.82
2018-12-12T05:34:33.593Z,20.37
2018-12-12T05:37:05.567Z,19.80
2018-12-12T05:39:36.599Z,16.80
2018-12-12T05:42:07.793Z,19.77
2018-12-12T05:44:38.044Z,19.60
2018-12-12T05:47:09.032Z,16.60
2018-12-12T05:49:39.525Z,20.90
2018-12-12T05:52:09.716Z,21.23
2018-12-12T05:54:46.283Z,16.50
2018-12-12T05:57:17.745Z,16.95
2018-12-12T05:59:48.710Z,16.20
2018-12-12T06:02:18.754Z,21.07
2018-12-12T06:04:50.088Z,19.60
2018-12-12T06:07:27.002Z,19.95
2018-12-12T06:10:00.744Z,18.70
2018-12-12T06:12:30.900Z,16.77
2018-12-12T06:15:01.757Z,19.50
2018-12-12T06:17:31.846Z,18.87
2018-12-12T06:20:02.811Z,16.07
2018-12-12T06:22:37.701Z,18.50
2018-12-12T06:25:07.861Z,23.67
2018-12-12T06:27:39.807Z,19.23
2018-12-12T06:30:10.906Z,16.37
2018-12-12T06:32:41.935Z,17.53
2018-12-12T06:35:14.856Z,17.63
2018-12-12T06:37:45.816Z,21.47
2018-12-12T06:40:16.955Z,19.20
2018-12-12T06:42:53.104Z,21.30
2018-12-12T06:45:23.841Z,22.70
2018-12-12T06:47:54.631Z,26.03
2018-12-12T06:50:24.866Z,24.27
2018-12-12T06:52:54.864Z,22.40
2018-12-12T06:55:29.631Z,21.97
2018-12-12T06:58:00.054Z,30.57
2018-12-12T07:00:31.063Z,27.15
2018-12-12T07:03:04.858Z,25.50
2018-12-12T07:05:35.860Z,23.52
2018-12-12T07:08:05.889Z,20.73
2018-12-12T07:10:36.939Z,19.93
2018-12-12T07:13:07.096Z,21.53
2018-12-12T07:15:39.017Z,23.63
2018-12-12T07:18:09.057Z,22.43
2018-12-12T07:20:39.976Z,28.20
2018-12-12T07:23:12.075Z,24.95
2018-12-12T07:25:42.301Z,25.63
2018-12-12T07:28:15.128Z,24.05
2018-12-12T07:30:46.103Z,23.13
2018-12-12T07:33:19.089Z,22.90
2018-12-12T07:35:49.306Z,25.67
2018-12-12T07:38:25.944Z,22.80
2018-12-12T07:40:57.259Z,21.57
2018-12-12T07:43:35.976Z,24.00
2018-12-12T07:46:07.196Z,24.73
2018-12-12T07:48:38.116Z,23.80
2018-12-12T07:51:08.498Z,26.95
2018-12-12T07:53:42.303Z,22.05
2018-12-12T07:56:12.960Z,24.55
2018-12-12T07:58:42.938Z,26.73
2018-12-12T08:01:14.210Z,25.48
2018-12-12T08:03:44.906Z,25.30
2018-12-12T08:06:15.451Z,25.73
2018-12-12T08:08:46.265Z,25.57
2018-12-12T08:11:20.098Z,24.93
2018-12-12T08:13:50.161Z,28.73
2018-12-12T08:16:21.503Z,24.20
2018-12-12T08:18:52.366Z,24.73
2018-12-12T08:21:23.396Z,26.07
2018-12-12T08:23:53.375Z,20.52
2018-12-12T08:26:24.272Z,19.60
2018-12-12T08:28:55.336Z,23.83
2018-12-12T08:31:25.478Z,20.90
2018-12-12T08:33:56.356Z,27.33
2018-12-12T08:36:26.434Z,21.40
2018-12-12T08:39:00.143Z,26.67
2018-12-12T08:41:31.376Z,29.42
2018-12-12T08:44:01.680Z,27.00
2018-12-12T08:46:38.410Z,22.43
2018-12-12T08:49:09.557Z,25.87
2018-12-12T08:51:39.639Z,24.40
2018-12-12T08:54:12.491Z,23.33
2018-12-12T08:56:42.459Z,24.70
2018-12-12T08:59:13.543Z,24.53
2018-12-12T09:01:44.656Z,21.70
2018-12-12T09:04:15.869Z,24.90
2018-12-12T09:06:45.975Z,20.13
2018-12-12T09:09:22.446Z,23.70
2018-12-12T09:11:56.275Z,19.60
2018-12-12T09:14:27.472Z,20.37
2018-12-12T09:16:57.510Z,21.53
2018-12-12T09:19:28.592Z,26.60
2018-12-12T09:22:01.511Z,19.97
2018-12-12T09:24:33.473Z,26.80
2018-12-12T09:27:03.513Z,30.80
2018-12-12T09:29:34.652Z,28.97
2018-12-12T09:32:06.461Z,27.70
2018-12-12T09:34:36.737Z,19.00
2018-12-12T09:37:15.913Z,20.62
2018-12-12T09:39:48.548Z,20.97
2018-12-12T09:42:18.519Z,20.27
2018-12-12T09:44:48.697Z,22.67
2018-12-12T09:47:18.936Z,21.27
2018-12-12T09:49:51.698Z,23.13
2018-12-12T09:52:22.763Z,23.50
2018-12-12T09:54:53.644Z,27.10
2018-12-12T09:57:23.662Z,22.50
2018-12-12T09:59:54.619Z,23.53
2018-12-12T10:02:25.686Z,22.27
2018-12-12T10:04:55.943Z,22.50
2018-12-12T10:07:29.850Z,24.37
2018-12-12T10:10:03.720Z,20.77
2018-12-12T10:12:33.961Z,19.00
2018-12-12T10:15:05.249Z,17.17
2018-12-12T10:17:35.726Z,18.40
2018-12-12T10:20:06.981Z,20.25
2018-12-12T10:22:37.464Z,19.37
2018-12-12T10:25:08.156Z,19.40
2018-12-12T10:27:38.874Z,23.60
2018-12-12T10:30:11.097Z,19.93
2018-12-12T10:32:42.670Z,24.10
2018-12-12T10:35:13.229Z,20.73
2018-12-12T10:37:46.131Z,22.77
2018-12-12T10:40:16.826Z,21.50
2018-12-12T10:42:48.918Z,24.00
2018-12-12T10:45:18.917Z,23.07
2018-12-12T10:47:48.918Z,23.17
2018-12-12T10:50:19.914Z,22.67
2018-12-12T10:52:50.023Z,22.03
2018-12-12T10:55:23.817Z,27.30
2018-12-12T10:57:55.007Z,23.60
2018-12-12T11:00:25.024Z,22.20
2018-12-12T11:03:01.203Z,19.05
2018-12-12T11:05:32.960Z,20.80
2018-12-12T11:08:03.525Z,26.03
2018-12-12T11:10:34.061Z,24.10
2018-12-12T11:13:04.694Z,23.00
2018-12-12T11:15:35.101Z,22.43
2018-12-12T11:18:06.008Z,24.93
2018-12-12T11:20:36.151Z,21.97
2018-12-12T11:23:07.330Z,21.00
2018-12-12T11:25:38.068Z,25.20
2018-12-12T11:28:08.839Z,21.50
2018-12-12T11:30:39.094Z,25.67
2018-12-12T11:33:10.572Z,23.42
2018-12-12T11:35:41.167Z,22.80
2018-12-12T11:38:12.208Z,20.90
2018-12-12T11:40:42.668Z,20.37
2018-12-12T11:43:13.493Z,24.70
2018-12-12T11:45:43.472Z,25.90
2018-12-12T11:48:15.051Z,22.60
2018-12-12T11:50:45.793Z,22.60
2018-12-12T11:53:16.211Z,24.53
2018-12-12T11:55:46.217Z,34.35
2018-12-12T11:58:17.285Z,33.20
2018-12-12T12:00:47.980Z,21.40
2018-12-12T12:03:18.335Z,27.53
2018-12-12T12:05:52.122Z,25.60
2018-12-12T12:08:23.635Z,24.27
2018-12-12T12:10:59.266Z,23.63
2018-12-12T12:13:30.404Z,21.17
2018-12-12T12:16:00.407Z,27.10
2018-12-12T12:18:31.272Z,28.47
2018-12-12T12:21:01.359Z,19.80
2018-12-12T12:23:32.483Z,23.50
2018-12-12T12:26:09.227Z,20.43
2018-12-12T12:28:39.359Z,24.03
2018-12-12T12:31:11.328Z,23.40
2018-12-12T12:33:41.675Z,18.20
2018-12-12T12:36:12.411Z,23.22
2018-12-12T12:38:43.262Z,25.83
2018-12-12T12:41:14.192Z,21.07
2018-12-12T12:43:44.957Z,31.00
2018-12-12T12:46:15.650Z,24.87
2018-12-12T12:48:46.426Z,21.90
2018-12-12T12:51:16.696Z,19.85
2018-12-12T12:53:48.021Z,20.73
2018-12-12T12:56:18.534Z,21.07
2018-12-12T12:58:49.059Z,20.37
2018-12-12T13:01:19.703Z,24.43
2018-12-12T13:03:50.292Z,21.00
2018-12-12T13:06:20.821Z,18.87
2018-12-12T13:08:51.286Z,21.07
2018-12-12T13:11:21.774Z,23.67
2018-12-12T13:13:53.244Z,21.87
2018-12-12T13:16:23.312Z,23.07
2018-12-12T13:18:53.664Z,19.00
2018-12-12T13:21:24.531Z,19.70
2018-12-12T13:23:55.002Z,18.67
2018-12-12T13:26:26.023Z,20.43
2018-12-12T13:28:56.691Z,21.10
2018-12-12T13:31:27.361Z,21.50
2018-12-12T13:33:58.028Z,21.40
2018-12-12T13:36:28.770Z,19.47
2018-12-12T13:38:59.493Z,18.73
2018-12-12T13:41:29.676Z,20.23
2018-12-12T13:44:00.859Z,22.90
2018-12-12T13:46:31.879Z,20.03
2018-12-12T13:49:02.503Z,21.33
2018-12-12T13:51:32.764Z,20.95
2018-12-12T13:54:04.357Z,19.60
2018-12-12T13:56:34.798Z,22.80
2018-12-12T13:59:05.815Z,17.30
2018-12-12T14:01:35.781Z,21.30
2018-12-12T14:04:06.867Z,20.27
2018-12-12T14:06:37.572Z,20.20
2018-12-12T14:09:08.159Z,20.40
2018-12-12T14:11:38.789Z,24.00
2018-12-12T14:14:08.970Z,19.40
2018-12-12T14:16:39.810Z,21.80
2018-12-12T14:19:13.771Z,16.70
2018-12-12T14:21:43.862Z,19.82
2018-12-12T14:24:15.019Z,22.50
2018-12-12T14:26:49.858Z,22.23
2018-12-12T14:29:21.891Z,20.25
2018-12-12T14:31:52.951Z,23.50
2018-12-12T14:34:29.078Z,23.33
2018-12-12T14:36:56.102Z,28.73
2018-12-12T14:39:32.752Z,25.43
2018-12-12T14:42:04.185Z,23.53
2018-12-12T14:44:42.821Z,24.63
2018-12-12T14:47:14.920Z,21.53
2018-12-12T14:49:45.924Z,26.20
2018-12-12T14:52:18.097Z,19.83
2018-12-12T14:54:55.001Z,20.17
2018-12-12T14:57:25.768Z,24.57
2018-12-12T14:59:57.265Z,23.30
2018-12-12T15:02:27.237Z,19.43
2018-12-12T15:04:58.096Z,24.23
2018-12-12T15:07:30.524Z,22.65
2018-12-12T15:10:02.154Z,34.03
2018-12-12T15:12:38.808Z,23.90
2018-12-12T15:15:09.667Z,24.30
2018-12-12T15:17:39.834Z,28.40
2018-12-12T15:20:10.188Z,28.37
2018-12-12T15:22:40.226Z,33.53
2018-12-12T15:25:12.084Z,27.35
2018-12-12T15:27:42.057Z,24.80
2018-12-12T15:30:12.724Z,25.43
2018-12-12T15:32:43.027Z,26.80
2018-12-12T15:35:13.771Z,29.72
2018-12-12T15:37:43.755Z,26.00
2018-12-12T15:40:20.087Z,24.90
2018-12-12T15:42:52.195Z,25.67
2018-12-12T15:45:22.440Z,23.13
2018-12-12T15:47:52.519Z,22.77
2018-12-12T15:50:23.320Z,23.93
2018-12-12T15:52:56.214Z,33.17
2018-12-12T15:55:26.607Z,24.23
2018-12-12T15:57:58.378Z,24.07
2018-12-12T16:00:28.859Z,25.15
2018-12-12T16:02:59.480Z,27.13
2018-12-12T16:05:31.446Z,23.60
2018-12-12T16:08:02.401Z,24.90
2018-12-12T16:10:34.295Z,22.10
2018-12-12T16:13:05.085Z,29.40
2018-12-12T16:15:37.697Z,21.93
2018-12-12T16:18:16.263Z,24.02
2018-12-12T16:20:46.311Z,24.93
2018-12-12T16:23:18.338Z,29.53
2018-12-12T16:25:49.611Z,30.50
2018-12-12T16:28:22.418Z,22.30
2018-12-12T16:30:52.521Z,25.03
2018-12-12T16:33:26.937Z,24.30
2018-12-12T16:35:57.857Z,25.13
2018-12-12T16:38:30.551Z,22.10
2018-12-12T16:41:00.647Z,23.67
2018-12-12T16:43:31.452Z,27.67
2018-12-12T16:46:01.539Z,25.30
2018-12-12T16:48:32.584Z,29.23
2018-12-12T16:51:06.205Z,25.70
2018-12-12T16:53:36.705Z,23.70
2018-12-12T16:56:07.763Z,28.90
2018-12-12T16:58:40.671Z,26.60
2018-12-12T17:01:11.603Z,23.62
2018-12-12T17:03:43.922Z,26.90
2018-12-12T17:06:14.662Z,25.60
2018-12-12T17:08:46.624Z,24.05
2018-12-12T17:11:17.274Z,29.05
2018-12-12T17:13:49.679Z,22.40
2018-12-12T17:16:23.926Z,25.75
2018-12-12T17:18:54.878Z,23.40
2018-12-12T17:21:31.524Z,28.03
2018-12-12T17:24:02.711Z,28.37
2018-12-12T17:26:33.717Z,28.33
2018-12-12T17:29:03.710Z,28.00
2018-12-12T17:31:34.578Z,31.07
2018-12-12T17:34:05.661Z,20.70
2018-12-12T17:36:35.668Z,24.82
2018-12-12T17:39:08.007Z,21.30
2018-12-12T17:41:39.773Z,20.53
2018-12-12T17:44:16.455Z,21.90
2018-12-12T17:46:47.131Z,18.20
2018-12-12T17:49:17.512Z,19.82
2018-12-12T17:51:47.982Z,23.30
2018-12-12T17:54:18.632Z,20.50
2018-12-12T17:56:48.871Z,19.67
2018-12-12T17:59:18.860Z,21.60
2018-12-12T18:01:49.786Z,33.30
2018-12-12T18:04:19.936Z,23.57
2018-12-12T18:06:49.956Z,21.87
2018-12-12T18:09:26.688Z,26.62
2018-12-12T18:11:57.893Z,23.00
2018-12-12T18:14:28.859Z,25.40
2018-12-12T18:16:58.930Z,31.40
2018-12-12T18:19:29.946Z,31.60
2018-12-12T18:22:00.971Z,29.20
2018-12-12T18:24:30.951Z,27.73
2018-12-12T18:27:03.118Z,25.53
2018-12-12T18:29:34.127Z,35.47
2018-12-12T18:32:11.794Z,24.80
2018-12-12T18:34:43.103Z,27.20
2018-12-12T18:37:13.814Z,30.00
2018-12-12T18:39:43.851Z,24.80
2018-12-12T18:42:14.973Z,29.87
2018-12-12T18:44:46.072Z,28.40
2018-12-12T18:47:17.950Z,25.30
2018-12-12T18:49:49.055Z,23.13
2018-12-12T18:52:19.072Z,22.30
2018-12-12T18:54:49.912Z,24.40
2018-12-12T18:57:20.161Z,28.17
2018-12-12T18:59:57.384Z,27.80
2018-12-12T19:02:35.901Z,29.57
2018-12-12T19:05:07.211Z,28.90
2018-12-12T19:07:37.837Z,26.50
2018-12-12T19:10:08.626Z,29.10
2018-12-12T19:12:39.101Z,29.60
2018-12-12T19:15:09.588Z,28.83
2018-12-12T19:17:40.255Z,30.52
2018-12-12T19:20:10.375Z,31.50
2018-12-12T19:22:41.488Z,35.20
2018-12-12T19:25:12.671Z,34.85
2018-12-12T19:27:42.655Z,36.47
2018-12-12T19:30:13.259Z,32.17
2018-12-12T19:32:43.457Z,34.80
2018-12-12T19:35:20.200Z,31.33
2018-12-12T19:37:51.261Z,33.70
2018-12-12T19:40:21.344Z,34.63
2018-12-12T19:42:59.087Z,33.03
2018-12-12T19:45:31.243Z,33.00
2018-12-12T19:48:02.687Z,30.30
2018-12-12T19:50:33.275Z,26.63
2018-12-12T19:53:07.237Z,31.70
2018-12-12T19:55:37.493Z,27.70
2018-12-12T19:58:08.405Z,27.47
2018-12-12T20:00:39.495Z,29.30
2018-12-12T20:03:16.152Z,29.15
2018-12-12T20:05:47.290Z,28.03
2018-12-12T20:08:17.435Z,28.63
2018-12-12T20:10:47.503Z,38.80
2018-12-12T20:13:17.516Z,35.60
2018-12-12T20:15:50.087Z,36.13
2018-12-12T20:18:22.487Z,25.80
2018-12-12T20:20:53.409Z,31.03
2018-12-12T20:23:25.746Z,29.18
2018-12-12T20:25:56.444Z,29.67
2018-12-12T20:28:26.431Z,25.95
2018-12-12T20:30:56.405Z,33.03
2018-12-12T20:33:34.296Z,29.27
2018-12-12T20:36:04.367Z,26.63
2018-12-12T20:38:35.573Z,29.13
2018-12-12T20:41:05.592Z,32.10
2018-12-12T20:43:36.645Z,29.70
2018-12-12T20:46:13.291Z,28.10
2018-12-12T20:48:43.596Z,31.90
2018-12-12T20:51:14.615Z,30.27
2018-12-12T20:53:46.711Z,31.13
2018-12-12T20:56:18.538Z,32.40
2018-12-12T20:58:49.643Z,34.77
2018-12-12T21:01:20.629Z,35.55
2018-12-12T21:03:54.508Z,36.20
2018-12-12T21:06:25.575Z,27.70
2018-12-12T21:08:55.735Z,29.33
2018-12-12T21:11:26.687Z,31.83
2018-12-12T21:13:57.831Z,31.93
2018-12-12T21:16:31.679Z,30.20
2018-12-12T21:19:01.713Z,29.20
2018-12-12T21:21:32.769Z,32.57
2018-12-12T21:24:02.768Z,32.03
2018-12-12T21:26:33.611Z,31.17
2018-12-12T21:29:04.817Z,22.13
2018-12-12T21:31:34.967Z,19.27
2018-12-12T21:34:07.740Z,20.30
2018-12-12T21:36:38.845Z,22.10
2018-12-12T21:39:09.941Z,18.60
2018-12-12T21:41:42.828Z,25.00
2018-12-12T21:44:13.741Z,23.53
2018-12-12T21:46:43.727Z,23.40
2018-12-12T21:49:14.828Z,22.33
2018-12-12T21:51:46.911Z,24.80
2018-12-12T21:54:19.665Z,27.80
2018-12-12T21:56:50.057Z,33.77
2018-12-12T21:59:20.842Z,30.33
2018-12-12T22:01:51.935Z,33.42
2018-12-12T22:04:22.672Z,26.27
2018-12-12T22:06:52.982Z,29.37
2018-12-12T22:09:29.838Z,29.40
2018-12-12T22:12:00.921Z,32.73
2018-12-12T22:14:32.155Z,31.10
2018-12-12T22:17:08.919Z,36.43
2018-12-12T22:19:39.045Z,35.20
2018-12-12T22:22:09.936Z,36.20
2018-12-12T22:24:40.983Z,41.20
2018-12-12T22:27:12.051Z,37.47
2018-12-12T22:29:42.238Z,41.83
2018-12-12T22:32:13.045Z,41.30
2018-12-12T22:34:43.046Z,41.57
2018-12-12T22:37:13.003Z,43.47
2018-12-12T22:39:43.759Z,38.43
2018-12-12T22:42:16.184Z,36.13
2018-12-12T22:44:47.051Z,38.08
2018-12-12T22:47:18.998Z,36.27
2018-12-12T22:49:49.604Z,37.00
2018-12-12T22:52:20.263Z,38.30
2018-12-12T22:54:50.223Z,35.80
2018-12-12T22:57:21.134Z,45.00
2018-12-12T22:59:52.272Z,40.52
2018-12-12T23:02:23.006Z,53.33
2018-12-12T23:04:53.198Z,56.63
2018-12-12T23:07:29.835Z,49.60
2018-12-12T23:10:01.044Z,51.08
2018-12-12T23:12:32.765Z,54.87
2018-12-12T23:15:05.867Z,47.37
2018-12-12T23:17:36.357Z,43.07
2018-12-12T23:20:07.613Z,47.17
2018-12-12T23:22:38.166Z,50.23
2018-12-12T23:25:09.424Z,57.13
2018-12-12T23:27:42.378Z,55.60
2018-12-12T23:30:16.293Z,51.07
2018-12-12T23:32:47.145Z,58.83
2018-12-12T23:35:17.385Z,68.67
2018-12-12T23:37:47.359Z,66.33
2018-12-12T23:40:18.237Z,67.60
2018-12-12T23:42:49.060Z,67.85
2018-12-12T23:45:19.303Z,71.10
2018-12-12T23:47:50.277Z,104.45
2018-12-12T23:50:20.858Z,103.60
2018-12-12T23:52:51.577Z,141.37
2018-12-12T23:55:22.221Z,114.37
2018-12-12T23:57:52.973Z,99.40
